Time;durP1;ratioP1;P1;durP2;ratioP2;P2;SDS_P1;SDS_P2;PMS_P1;PMS_P2;Temp;Humidity;BMP_temperature;BMP_pressure;BME280_temperature;BME280_humidity;BME280_pressure;Samples;Min_cycle;Max_cycle;Signal;HPM_P1;HPM_P2
2021/12/13 00:00:04;;;;;;;186.50;46.00;;;0.60;99.90;;;;;;5025057;28;20221;-69
2021/12/13 00:03:16;;;;;;;203.23;47.40;;;0.60;99.90;;;;;;5040938;28;20512;-70
2021/12/13 00:06:09;;;;;;;201.47;48.23;;;0.70;99.90;;;;;;5043523;28;20561;-71
2021/12/13 00:09:01;;;;;;;233.03;48.77;;;0.70;99.90;;;;;;5040886;28;21090;-70
2021/12/13 00:11:52;;;;;;;215.33;46.90;;;0.70;99.90;;;;;;5043923;28;20312;-69
2021/12/13 00:14:49;;;;;;;204.37;47.63;;;0.70;99.90;;;;;;5028152;28;20713;-70
2021/12/13 00:17:44;;;;;;;204.70;46.87;;;0.70;99.90;;;;;;5042624;28;20657;-70
2021/12/13 00:20:39;;;;;;;229.63;48.90;;;0.70;99.90;;;;;;5028841;28;20233;-71
2021/12/13 00:23:31;;;;;;;194.03;47.80;;;0.70;99.90;;;;;;5046249;28;20232;-70
2021/12/13 00:26:27;;;;;;;198.33;47.40;;;0.70;99.90;;;;;;5044822;28;20213;-70
2021/12/13 00:29:18;;;;;;;194.63;46.67;;;0.70;99.90;;;;;;5040976;28;20220;-69
2021/12/13 00:32:18;;;;;;;191.53;45.57;;;0.80;99.90;;;;;;5024484;28;21079;-69
2021/12/13 00:35:10;;;;;;;182.03;46.87;;;0.80;99.90;;;;;;5038716;28;20217;-71
2021/12/13 00:38:04;;;;;;;206.90;47.93;;;0.80;99.90;;;;;;5042317;28;20747;-71
2021/12/13 00:41:01;;;;;;;195.63;47.80;;;0.80;99.90;;;;;;5037797;28;20221;-70
2021/12/13 00:43:53;;;;;;;176.10;46.13;;;0.80;99.90;;;;;;5042583;28;20235;-70
2021/12/13 00:46:45;;;;;;;189.80;47.00;;;0.80;99.90;;;;;;5029138;28;20224;-69
2021/12/13 00:49:41;;;;;;;206.07;48.67;;;0.80;99.90;;;;;;5026836;28;20454;-69
2021/12/13 00:52:36;;;;;;;196.27;46.47;;;0.80;99.90;;;;;;5018874;28;20298;-69
2021/12/13 00:55:28;;;;;;;199.50;49.33;;;0.80;99.90;;;;;;5021844;28;20229;-70
2021/12/13 00:58:19;;;;;;;187.03;46.77;;;0.80;99.90;;;;;;5019409;28;20241;-70
2021/12/13 01:01:13;;;;;;;194.93;48.57;;;0.80;99.90;;;;;;5005048;28;20224;-69
2021/12/13 01:04:06;;;;;;;191.77;47.37;;;0.80;99.90;;;;;;5021550;28;20229;-70
2021/12/13 01:07:46;;;;;;;188.97;45.53;;;0.80;99.90;;;;;;5036139;28;20231;-69
2021/12/13 01:11:08;;;;;;;206.43;48.13;;;0.70;99.90;;;;;;4978795;28;20305;-70
2021/12/13 01:17:29;;;;;;;205.43;46.20;;;0.80;99.90;;;;;;5096299;27;20595;-70
2021/12/13 01:20:29;;;;;;;188.17;44.10;;;0.80;99.90;;;;;;5071512;28;20218;-71
2021/12/13 01:23:28;;;;;;;169.93;43.00;;;0.70;99.90;;;;;;5069342;28;20540;-71
2021/12/13 01:26:36;;;;;;;160.77;43.23;;;0.70;99.90;;;;;;5077037;28;20214;-70
2021/12/13 01:29:28;;;;;;;190.67;45.37;;;0.80;99.90;;;;;;5059626;28;20223;-71
2021/12/13 01:32:18;;;;;;;164.67;43.60;;;0.80;99.90;;;;;;5060332;28;20215;-70
2021/12/13 01:35:10;;;;;;;151.30;42.83;;;0.70;99.90;;;;;;5064185;28;20220;-70
2021/12/13 01:38:03;;;;;;;158.53;44.53;;;0.70;99.90;;;;;;5075848;28;20226;-68
2021/12/13 01:40:54;;;;;;;167.07;44.97;;;0.60;99.90;;;;;;5073015;28;20234;-70
2021/12/13 01:43:47;;;;;;;156.60;42.60;;;0.60;99.90;;;;;;5075877;28;20852;-69
2021/12/13 01:46:38;;;;;;;155.43;43.63;;;0.60;99.90;;;;;;5061290;28;20247;-69
2021/12/13 01:49:37;;;;;;;172.13;43.83;;;0.60;99.90;;;;;;5057399;28;20314;-69
2021/12/13 01:52:29;;;;;;;143.00;39.67;;;0.60;99.90;;;;;;5063599;28;20215;-69
2021/12/13 01:55:23;;;;;;;157.27;41.83;;;0.60;99.90;;;;;;5073358;28;20215;-69
2021/12/13 01:58:36;;;;;;;149.47;39.50;;;0.60;99.90;;;;;;5074313;28;20281;-71
2021/12/13 02:01:26;;;;;;;155.13;40.20;;;0.60;99.90;;;;;;5062447;28;20401;-69
2021/12/13 02:04:15;;;;;;;149.80;41.93;;;0.70;99.90;;;;;;5075214;28;20220;-70
2021/12/13 02:07:07;;;;;;;143.23;38.70;;;0.80;99.90;;;;;;5073450;28;20211;-69
2021/12/13 02:09:58;;;;;;;149.33;38.53;;;0.70;99.90;;;;;;5062408;28;20215;-70
2021/12/13 02:12:55;;;;;;;131.00;36.77;;;0.70;99.90;;;;;;5064089;28;20221;-70
2021/12/13 02:18:56;;;;;;;117.40;32.93;;;0.70;99.90;;;;;;5074517;28;20215;-70
2021/12/13 02:21:55;;;;;;;107.57;31.17;;;0.60;99.90;;;;;;5077072;28;20301;-71
2021/12/13 02:24:45;;;;;;;105.40;30.67;;;0.70;99.90;;;;;;5079231;28;20533;-70
2021/12/13 02:27:37;;;;;;;105.93;29.67;;;0.80;99.90;;;;;;5067701;28;20335;-69
2021/12/13 02:30:31;;;;;;;91.27;29.23;;;0.70;99.90;;;;;;5065031;28;20600;-69
2021/12/13 02:33:33;;;;;;;74.67;24.83;;;0.70;99.90;;;;;;5068438;28;20227;-68
2021/12/13 02:36:25;;;;;;;76.30;23.57;;;0.70;99.90;;;;;;5049674;28;20236;-71
2021/12/13 02:39:16;;;;;;;76.73;25.03;;;0.70;99.90;;;;;;5065025;28;20323;-69
2021/12/13 02:42:12;;;;;;;89.00;27.57;;;0.70;99.90;;;;;;5049726;28;20227;-70
2021/12/13 02:45:13;;;;;;;77.53;25.17;;;0.70;99.90;;;;;;5053100;28;20726;-72
2021/12/13 02:48:05;;;;;;;81.20;26.87;;;0.70;99.90;;;;;;5046897;28;20244;-71
2021/12/13 02:51:01;;;;;;;80.30;27.43;;;0.80;99.90;;;;;;5047105;28;20228;-70
2021/12/13 02:53:53;;;;;;;82.93;26.07;;;0.80;99.90;;;;;;5063767;28;20223;-72
2021/12/13 02:56:45;;;;;;;85.57;28.57;;;0.80;99.90;;;;;;5048010;28;20224;-70
2021/12/13 02:59:39;;;;;;;101.53;28.63;;;0.80;99.90;;;;;;5067751;28;20234;-70
2021/12/13 03:02:31;;;;;;;92.13;27.30;;;0.70;99.90;;;;;;5061626;28;20220;-72
2021/12/13 03:05:24;;;;;;;93.17;27.63;;;0.70;99.90;;;;;;5062807;28;20374;-71
2021/12/13 03:08:18;;;;;;;84.73;27.27;;;0.80;99.90;;;;;;5061438;28;20829;-71
2021/12/13 03:11:10;;;;;;;91.77;28.17;;;0.80;99.90;;;;;;5061196;28;20228;-71
2021/12/13 03:14:04;;;;;;;90.57;28.07;;;0.80;99.90;;;;;;5058131;28;20234;-70
2021/12/13 03:17:00;;;;;;;83.80;28.13;;;0.90;99.90;;;;;;5045065;28;20247;-72
2021/12/13 03:20:03;;;;;;;86.93;28.50;;;0.80;99.90;;;;;;5058839;28;20224;-72
2021/12/13 03:23:14;;;;;;;88.27;27.57;;;0.90;99.90;;;;;;5062162;28;20662;-71
2021/12/13 03:26:30;;;;;;;88.67;27.30;;;0.80;99.90;;;;;;5047579;28;20268;-71
2021/12/13 03:29:24;;;;;;;87.40;27.47;;;0.90;99.90;;;;;;5047858;28;20224;-70
2021/12/13 03:32:17;;;;;;;93.77;27.83;;;0.90;99.90;;;;;;5060765;28;20262;-71
2021/12/13 03:35:13;;;;;;;79.23;27.07;;;0.90;99.90;;;;;;5059332;28;20223;-71
2021/12/13 03:38:07;;;;;;;84.60;28.63;;;1.00;99.90;;;;;;5058597;28;20246;-70
2021/12/13 03:40:59;;;;;;;92.13;29.03;;;0.90;99.90;;;;;;5043751;28;20231;-70
2021/12/13 03:43:55;;;;;;;95.87;29.93;;;1.00;99.90;;;;;;5062264;28;20228;-69
2021/12/13 03:46:47;;;;;;;94.67;28.43;;;1.00;99.90;;;;;;5059557;28;20229;-68
2021/12/13 03:49:46;;;;;;;100.10;28.67;;;1.00;99.90;;;;;;5045810;28;20253;-70
2021/12/13 03:52:36;;;;;;;102.40;30.63;;;1.00;99.90;;;;;;5060735;28;20593;-69
2021/12/13 03:55:28;;;;;;;91.57;28.47;;;1.00;99.90;;;;;;5059990;28;20228;-69
2021/12/13 03:58:21;;;;;;;112.57;32.20;;;1.00;99.90;;;;;;5047131;28;20246;-72
2021/12/13 04:01:13;;;;;;;107.93;31.07;;;1.00;99.90;;;;;;5044234;28;20887;-70
2021/12/13 04:04:08;;;;;;;110.90;30.83;;;0.90;99.90;;;;;;5064417;28;20216;-69
2021/12/13 04:07:02;;;;;;;109.50;31.10;;;0.90;99.90;;;;;;5056908;28;20205;-72
2021/12/13 04:09:55;;;;;;;118.43;31.17;;;0.90;99.90;;;;;;5041895;28;20221;-69
2021/12/13 04:12:48;;;;;;;102.50;31.83;;;0.90;99.90;;;;;;5042684;28;20761;-70
2021/12/13 04:15:57;;;;;;;109.10;31.93;;;0.90;99.90;;;;;;5061008;28;20223;-71
2021/12/13 04:19:07;;;;;;;99.83;29.50;;;1.00;99.90;;;;;;5061885;28;20966;-70
2021/12/13 04:22:01;;;;;;;110.43;32.30;;;1.00;99.90;;;;;;5058944;28;20845;-70
2021/12/13 04:24:56;;;;;;;112.93;31.47;;;1.00;99.90;;;;;;5058941;28;20236;-70
2021/12/13 04:27:49;;;;;;;113.23;30.47;;;1.00;99.90;;;;;;5062036;28;20224;-68
2021/12/13 04:30:42;;;;;;;109.33;30.87;;;0.90;99.90;;;;;;5064196;28;20255;-70
2021/12/13 04:33:36;;;;;;;120.17;33.30;;;0.80;99.90;;;;;;5043912;28;20224;-71
2021/12/13 04:36:28;;;;;;;101.70;30.03;;;1.00;99.90;;;;;;5046058;28;20231;-71
2021/12/13 04:39:27;;;;;;;110.17;31.83;;;0.90;99.90;;;;;;5046229;28;20217;-70
2021/12/13 04:42:18;;;;;;;108.93;30.47;;;1.00;99.90;;;;;;5060211;28;20216;-72
2021/12/13 04:45:10;;;;;;;112.73;31.63;;;1.00;99.90;;;;;;5054834;28;20315;-71
2021/12/13 04:48:05;;;;;;;119.40;32.53;;;1.00;99.90;;;;;;5061267;28;20231;-70
2021/12/13 04:50:58;;;;;;;119.73;34.10;;;1.00;99.90;;;;;;5061761;28;20246;-69
2021/12/13 04:53:49;;;;;;;122.30;31.53;;;0.90;99.90;;;;;;5060197;28;20293;-70
2021/12/13 04:56:40;;;;;;;119.13;31.90;;;0.70;99.90;;;;;;5067904;28;20363;-70
2021/12/13 04:59:30;;;;;;;118.27;31.53;;;0.80;99.90;;;;;;5051240;28;20231;-69
2021/12/13 05:02:19;;;;;;;109.27;33.17;;;0.90;99.90;;;;;;5064962;28;20852;-69
2021/12/13 05:05:08;;;;;;;112.43;33.30;;;0.60;99.90;;;;;;5058728;28;20225;-69
2021/12/13 05:07:57;;;;;;;111.27;32.80;;;0.80;99.90;;;;;;5055982;28;20215;-69
2021/12/13 05:10:51;;;;;;;112.47;31.43;;;0.80;99.90;;;;;;5056784;28;20224;-70
2021/12/13 05:13:47;;;;;;;104.67;31.10;;;0.80;99.90;;;;;;5044866;28;20235;-69
2021/12/13 05:16:43;;;;;;;126.43;35.60;;;0.80;99.90;;;;;;5032327;28;20221;-70
2021/12/13 05:19:34;;;;;;;119.03;32.63;;;0.90;99.90;;;;;;5022859;28;20225;-69
2021/12/13 05:22:24;;;;;;;113.70;32.97;;;0.90;99.90;;;;;;5038847;28;20659;-70
2021/12/13 05:25:22;;;;;;;119.23;32.57;;;0.90;99.90;;;;;;5041468;28;20843;-71
2021/12/13 05:28:14;;;;;;;116.93;33.43;;;0.70;99.90;;;;;;5035451;28;20258;-70
2021/12/13 05:31:11;;;;;;;124.13;34.97;;;0.70;99.90;;;;;;5038452;28;20639;-69
2021/12/13 05:34:03;;;;;;;137.43;36.33;;;0.70;99.90;;;;;;5037694;28;20240;-70
2021/12/13 05:36:56;;;;;;;141.07;36.57;;;0.80;99.90;;;;;;5028645;28;20233;-70
2021/12/13 05:39:58;;;;;;;138.73;35.50;;;0.90;99.90;;;;;;5039341;28;20220;-70
2021/12/13 05:42:49;;;;;;;154.67;36.10;;;1.00;99.90;;;;;;5046359;28;20231;-70
2021/12/13 05:45:46;;;;;;;132.70;34.47;;;0.90;99.90;;;;;;5031046;28;20688;-70
2021/12/13 05:48:43;;;;;;;139.83;36.83;;;0.80;99.90;;;;;;5040576;28;20248;-70
2021/12/13 05:51:35;;;;;;;133.87;36.10;;;0.70;99.90;;;;;;5034917;28;20351;-71
2021/12/13 05:54:31;;;;;;;140.07;36.27;;;0.70;99.90;;;;;;5040813;28;20221;-70
2021/12/13 05:57:22;;;;;;;135.40;36.27;;;0.80;99.90;;;;;;5025387;28;20221;-71
2021/12/13 06:00:18;;;;;;;136.87;36.40;;;0.70;99.90;;;;;;5026336;28;20231;-70
2021/12/13 06:03:09;;;;;;;145.83;34.57;;;0.80;99.90;;;;;;5042166;28;20249;-71
2021/12/13 06:06:06;;;;;;;152.53;36.63;;;0.70;99.90;;;;;;5048398;28;20216;-69
2021/12/13 06:08:58;;;;;;;145.83;35.27;;;0.70;99.90;;;;;;5010271;28;20218;-69
2021/12/13 06:12:03;;;;;;;136.07;33.63;;;0.60;99.90;;;;;;5025123;28;20235;-69
2021/12/13 06:14:52;;;;;;;126.27;32.13;;;0.70;99.90;;;;;;5039841;28;20212;-72
2021/12/13 06:17:45;;;;;;;150.67;34.20;;;0.50;99.90;;;;;;5038012;28;20221;-70
2021/12/13 06:20:39;;;;;;;145.63;34.70;;;0.40;99.90;;;;;;5057477;28;20236;-70
2021/12/13 06:23:31;;;;;;;133.07;32.33;;;0.40;99.90;;;;;;5060214;28;20762;-71
2021/12/13 06:26:28;;;;;;;122.00;32.67;;;0.50;99.90;;;;;;5056734;28;20228;-70
2021/12/13 06:29:19;;;;;;;179.93;35.67;;;0.50;99.90;;;;;;5050362;28;20653;-70
2021/12/13 06:32:26;;;;;;;136.40;34.47;;;0.50;99.90;;;;;;5046940;28;20242;-71
2021/12/13 06:35:47;;;;;;;118.67;33.20;;;0.60;99.90;;;;;;5065437;28;20652;-70
2021/12/13 06:38:50;;;;;;;126.53;32.60;;;0.60;99.90;;;;;;5061412;28;20227;-71
2021/12/13 06:41:42;;;;;;;127.57;31.40;;;0.60;99.90;;;;;;5064247;28;20220;-70
2021/12/13 06:44:38;;;;;;;115.70;31.53;;;0.60;99.90;;;;;;5060670;28;20251;-70
2021/12/13 06:47:27;;;;;;;119.10;30.93;;;0.70;99.90;;;;;;5059182;28;21066;-69
2021/12/13 06:50:23;;;;;;;162.17;35.10;;;0.50;99.90;;;;;;5058733;28;20601;-70
2021/12/13 06:53:15;;;;;;;189.33;37.27;;;0.60;99.90;;;;;;5055854;28;20226;-71
2021/12/13 06:56:29;;;;;;;154.70;35.83;;;0.70;99.90;;;;;;5080432;28;20810;-69
2021/12/13 06:59:19;;;;;;;181.70;35.17;;;0.80;99.90;;;;;;5064274;28;20238;-70
2021/12/13 07:02:12;;;;;;;160.73;34.23;;;0.50;99.90;;;;;;5079156;28;20223;-70
2021/12/13 07:05:06;;;;;;;168.43;36.17;;;0.60;99.90;;;;;;5080320;28;20227;-71
2021/12/13 07:07:59;;;;;;;153.80;34.20;;;0.60;99.90;;;;;;5077574;28;20210;-71
2021/12/13 07:10:59;;;;;;;205.20;37.03;;;0.50;99.90;;;;;;5069853;28;20241;-69
2021/12/13 07:14:00;;;;;;;243.73;38.07;;;0.50;99.90;;;;;;5079839;28;20223;-69
2021/12/13 07:16:52;;;;;;;165.63;35.30;;;0.50;99.90;;;;;;5088663;28;20222;-67
2021/12/13 07:19:42;;;;;;;174.60;36.97;;;0.60;99.90;;;;;;5086946;28;20230;-68
2021/12/13 07:22:32;;;;;;;167.80;36.80;;;0.50;99.90;;;;;;5098944;27;20234;-67
2021/12/13 07:25:23;;;;;;;200.97;36.63;;;0.60;99.90;;;;;;5085870;27;20261;-67
2021/12/13 07:28:13;;;;;;;177.13;36.87;;;0.60;99.90;;;;;;5101667;28;20787;-68
2021/12/13 07:31:08;;;;;;;170.83;37.87;;;0.70;99.90;;;;;;5101238;28;20237;-68
2021/12/13 07:34:08;;;;;;;164.13;34.37;;;0.70;99.90;;;;;;5086508;28;20223;-67
2021/12/13 07:37:01;;;;;;;213.17;36.57;;;0.60;99.90;;;;;;5098534;28;20297;-67
2021/12/13 07:39:50;;;;;;;169.93;36.80;;;0.70;99.90;;;;;;5084799;28;20918;-67
2021/12/13 07:42:38;;;;;;;188.20;36.77;;;0.60;99.90;;;;;;5099726;28;20278;-66
2021/12/13 07:45:30;;;;;;;216.90;37.23;;;0.60;99.90;;;;;;5100850;28;20223;-67
2021/12/13 07:48:24;;;;;;;187.93;36.67;;;0.60;99.90;;;;;;5086970;28;20210;-67
2021/12/13 07:51:19;;;;;;;167.13;35.43;;;0.50;99.90;;;;;;5095607;28;20211;-67
2021/12/13 07:54:12;;;;;;;147.10;32.80;;;0.50;99.90;;;;;;5095664;27;20610;-67
2021/12/13 07:57:04;;;;;;;177.43;34.93;;;0.30;99.90;;;;;;5101932;27;20257;-66
2021/12/13 07:59:54;;;;;;;192.27;34.93;;;0.20;99.90;;;;;;5085690;28;21060;-67
2021/12/13 08:02:55;;;;;;;157.93;34.73;;;0.40;99.90;;;;;;5100462;28;20227;-67
2021/12/13 08:05:49;;;;;;;177.80;35.73;;;0.40;99.90;;;;;;5083326;28;20585;-66
2021/12/13 08:08:47;;;;;;;159.50;33.93;;;0.40;99.90;;;;;;5083873;28;20238;-66
2021/12/13 08:11:43;;;;;;;162.00;33.93;;;0.50;99.90;;;;;;5098493;28;20560;-67
2021/12/13 08:14:36;;;;;;;157.73;35.37;;;0.30;99.90;;;;;;5098429;27;20219;-68
2021/12/13 08:17:29;;;;;;;163.50;34.90;;;0.30;99.90;;;;;;5097823;28;20227;-67
2021/12/13 08:20:23;;;;;;;167.23;34.23;;;0.30;99.90;;;;;;5101370;28;20219;-65
2021/12/13 08:23:20;;;;;;;158.50;35.70;;;0.50;99.90;;;;;;5097170;28;20225;-67
2021/12/13 08:26:16;;;;;;;195.87;36.30;;;0.60;99.90;;;;;;5100333;27;20250;-65
2021/12/13 08:29:10;;;;;;;148.00;33.23;;;0.40;99.90;;;;;;5086240;28;20255;-68
2021/12/13 08:32:06;;;;;;;150.17;35.13;;;0.60;99.90;;;;;;5097478;27;20222;-67
2021/12/13 08:34:57;;;;;;;173.37;36.20;;;0.40;99.90;;;;;;5096738;28;20226;-65
2021/12/13 08:37:46;;;;;;;171.53;35.70;;;0.40;99.90;;;;;;5098127;28;20740;-68
2021/12/13 08:40:36;;;;;;;158.50;35.17;;;0.40;99.90;;;;;;5091268;28;20230;-67
2021/12/13 08:43:39;;;;;;;148.00;34.03;;;0.60;99.90;;;;;;5081545;28;22737;-67
2021/12/13 08:46:40;;;;;;;129.93;32.17;;;0.60;99.90;;;;;;5098171;27;20234;-65
2021/12/13 08:49:37;;;;;;;151.50;35.70;;;0.60;99.90;;;;;;5084292;28;20341;-66
2021/12/13 08:52:30;;;;;;;147.63;35.47;;;0.60;99.90;;;;;;5085898;28;20226;-68
2021/12/13 08:55:26;;;;;;;138.53;33.90;;;0.50;99.90;;;;;;5084704;28;20563;-67
2021/12/13 08:58:18;;;;;;;167.30;36.80;;;0.50;99.90;;;;;;5080086;28;20745;-67
2021/12/13 09:01:13;;;;;;;136.27;36.20;;;0.60;99.90;;;;;;5076996;28;20246;-68
2021/12/13 09:04:02;;;;;;;156.53;36.67;;;0.70;99.90;;;;;;5096041;28;20223;-68
2021/12/13 09:06:54;;;;;;;154.90;35.23;;;0.70;99.90;;;;;;5082412;27;21044;-68
2021/12/13 09:09:45;;;;;;;176.87;35.97;;;0.80;99.90;;;;;;5078373;28;20359;-67
2021/12/13 09:12:37;;;;;;;151.50;35.97;;;0.80;99.90;;;;;;5092567;28;20749;-66
2021/12/13 09:15:33;;;;;;;159.73;37.20;;;0.70;99.90;;;;;;5093839;28;20916;-66
2021/12/13 09:18:23;;;;;;;154.90;37.63;;;0.80;99.90;;;;;;5092481;28;20206;-66
2021/12/13 09:21:15;;;;;;;164.53;36.20;;;0.80;99.90;;;;;;5094849;28;20226;-67
2021/12/13 09:24:04;;;;;;;142.33;38.77;;;0.90;99.90;;;;;;5096834;28;20306;-66
2021/12/13 09:26:57;;;;;;;146.90;37.13;;;0.90;99.90;;;;;;5094869;28;20237;-67
2021/12/13 09:30:06;;;;;;;162.53;37.90;;;0.90;99.90;;;;;;5094638;28;20632;-67
2021/12/13 09:32:59;;;;;;;171.80;39.13;;;0.70;99.90;;;;;;5097347;28;20227;-67
2021/12/13 09:35:52;;;;;;;150.30;37.13;;;0.80;99.90;;;;;;5099065;28;20230;-67
2021/12/13 09:38:44;;;;;;;141.53;35.73;;;0.80;99.90;;;;;;5100369;28;20647;-66
2021/12/13 09:41:38;;;;;;;138.97;36.30;;;0.60;99.90;;;;;;5102696;28;20230;-66
2021/12/13 09:44:33;;;;;;;128.50;33.93;;;0.80;99.90;;;;;;5101251;28;20278;-67
2021/12/13 09:47:25;;;;;;;139.90;36.93;;;0.70;99.90;;;;;;5098109;28;20214;-67
2021/12/13 09:50:22;;;;;;;124.43;34.07;;;0.80;99.90;;;;;;5100263;28;20256;-68
2021/12/13 09:53:15;;;;;;;141.30;35.00;;;0.90;99.90;;;;;;5102330;28;20250;-68
2021/12/13 09:56:09;;;;;;;139.30;33.83;;;0.80;99.90;;;;;;5087809;28;20345;-68
2021/12/13 09:59:03;;;;;;;125.57;33.63;;;0.90;99.90;;;;;;5086959;28;20226;-67
2021/12/13 10:01:53;;;;;;;140.80;36.37;;;0.80;99.90;;;;;;5103548;28;20329;-67
2021/12/13 10:04:44;;;;;;;123.43;33.10;;;0.90;99.90;;;;;;5101031;27;20722;-66
2021/12/13 10:07:38;;;;;;;132.00;35.53;;;0.80;99.90;;;;;;5099916;28;20233;-67
2021/12/13 10:10:30;;;;;;;135.40;34.77;;;0.90;99.90;;;;;;5083112;28;20229;-66
2021/12/13 10:13:22;;;;;;;128.23;34.87;;;0.90;99.90;;;;;;5085331;28;20222;-67
2021/12/13 10:16:16;;;;;;;146.07;37.50;;;1.00;99.90;;;;;;5098203;28;20863;-66
2021/12/13 10:19:07;;;;;;;123.67;33.67;;;1.00;99.90;;;;;;5099349;27;20722;-68
2021/12/13 10:21:56;;;;;;;122.70;34.90;;;0.90;99.90;;;;;;5083815;28;20222;-69
2021/12/13 10:24:52;;;;;;;132.10;34.10;;;1.00;99.90;;;;;;5097049;28;20219;-68
2021/12/13 10:27:41;;;;;;;157.63;38.37;;;0.50;99.90;;;;;;5095356;27;20223;-67
2021/12/13 10:30:34;;;;;;;145.00;37.40;;;0.60;99.90;;;;;;5094080;27;20222;-66
2021/12/13 10:33:28;;;;;;;143.80;38.23;;;0.90;99.90;;;;;;5098258;27;20245;-67
2021/12/13 10:36:17;;;;;;;140.83;34.73;;;0.80;99.90;;;;;;5080418;28;20256;-65
2021/12/13 10:39:09;;;;;;;132.50;35.47;;;0.80;99.90;;;;;;5099975;28;20260;-67
2021/12/13 10:42:27;;;;;;;155.70;38.47;;;0.70;99.90;;;;;;5081562;28;21019;-67
2021/12/13 10:45:20;;;;;;;133.37;36.70;;;0.50;99.90;;;;;;5099720;28;20223;-67
2021/12/13 10:48:12;;;;;;;146.40;37.43;;;0.50;99.90;;;;;;5098491;27;20219;-68
2021/12/13 10:51:06;;;;;;;143.73;38.40;;;0.60;99.90;;;;;;5085590;28;20214;-68
2021/12/13 10:53:57;;;;;;;121.97;33.90;;;0.70;99.90;;;;;;5094856;28;20226;-69
2021/12/13 10:56:49;;;;;;;119.60;32.43;;;0.90;99.90;;;;;;5084857;28;21318;-69
2021/12/13 10:59:40;;;;;;;127.60;33.17;;;1.10;99.90;;;;;;5097233;27;20286;-68
2021/12/13 11:02:33;;;;;;;141.73;36.53;;;1.20;99.90;;;;;;5080457;28;20222;-68
2021/12/13 11:05:24;;;;;;;114.27;34.30;;;1.30;99.90;;;;;;5098245;28;20214;-68
2021/12/13 11:08:16;;;;;;;130.67;35.73;;;1.30;99.90;;;;;;5093904;27;20226;-66
2021/12/13 11:11:11;;;;;;;132.53;37.13;;;1.10;99.90;;;;;;5099183;27;20246;-67
2021/12/13 11:14:03;;;;;;;133.07;37.20;;;1.10;99.90;;;;;;5099716;27;20238;-65
2021/12/13 11:16:59;;;;;;;136.67;36.60;;;1.20;99.90;;;;;;5076589;28;20228;-68
2021/12/13 11:19:52;;;;;;;128.57;36.60;;;1.20;99.90;;;;;;5078426;28;20715;-66
2021/12/13 11:22:44;;;;;;;133.47;36.73;;;1.20;99.90;;;;;;5077157;28;20228;-70
2021/12/13 11:25:36;;;;;;;131.23;38.93;;;1.20;99.90;;;;;;5075131;28;20219;-73
2021/12/13 11:28:29;;;;;;;119.73;36.30;;;1.40;99.90;;;;;;5072365;28;20781;-69
2021/12/13 11:31:44;;;;;;;134.57;38.80;;;1.30;99.90;;;;;;5080928;28;20279;-71
2021/12/13 11:34:54;;;;;;;126.67;37.37;;;1.40;99.90;;;;;;5077121;28;20219;-72
2021/12/13 11:38:00;;;;;;;118.40;37.43;;;1.20;99.90;;;;;;5071768;28;20231;-71
2021/12/13 11:41:24;;;;;;;123.60;37.83;;;1.30;99.90;;;;;;5075966;28;20369;-72
2021/12/13 11:44:26;;;;;;;131.80;38.30;;;1.40;99.90;;;;;;5074811;28;20226;-70
2021/12/13 11:47:43;;;;;;;133.43;37.20;;;1.40;99.90;;;;;;5080656;28;20222;-71
2021/12/13 11:50:59;;;;;;;137.63;39.67;;;1.30;99.90;;;;;;5076976;28;20687;-73
2021/12/13 11:54:21;;;;;;;145.77;39.77;;;1.40;99.90;;;;;;5079321;28;20607;-71
2021/12/13 11:57:47;;;;;;;143.83;42.33;;;1.30;99.90;;;;;;5080946;28;20770;-71
2021/12/13 12:01:02;;;;;;;141.17;39.63;;;1.40;99.90;;;;;;5062956;28;20725;-70
2021/12/13 12:04:28;;;;;;;154.23;40.97;;;1.30;99.90;;;;;;5076843;28;20220;-72
2021/12/13 12:07:59;;;;;;;154.60;40.80;;;1.30;99.90;;;;;;5078397;28;20284;-70
2021/12/13 12:11:11;;;;;;;145.43;40.37;;;1.30;99.90;;;;;;5042943;28;20231;-72
2021/12/13 12:14:06;;;;;;;161.43;42.50;;;1.50;99.90;;;;;;5076810;28;20325;-72
2021/12/13 12:16:57;;;;;;;144.10;40.60;;;1.50;99.90;;;;;;5092158;28;20242;-69
2021/12/13 12:19:48;;;;;;;148.50;43.63;;;1.60;99.90;;;;;;5092416;27;20220;-70
2021/12/13 12:22:48;;;;;;;144.37;40.80;;;1.60;99.90;;;;;;5082173;28;20222;-70
2021/12/13 12:25:39;;;;;;;140.97;40.13;;;1.40;99.90;;;;;;5082596;28;20238;-71
2021/12/13 12:28:33;;;;;;;159.47;43.90;;;1.50;99.90;;;;;;5096827;28;20686;-71
2021/12/13 12:31:29;;;;;;;149.90;42.03;;;1.50;99.90;;;;;;5082411;28;20211;-70
2021/12/13 12:34:18;;;;;;;148.80;42.03;;;1.60;99.90;;;;;;5094152;28;20754;-68
2021/12/13 12:37:43;;;;;;;153.77;42.97;;;1.60;99.90;;;;;;5094906;27;20215;-68
2021/12/13 12:40:36;;;;;;;148.13;42.83;;;1.50;99.90;;;;;;5078953;28;20223;-68
2021/12/13 12:43:27;;;;;;;148.50;42.30;;;1.40;99.90;;;;;;5093802;27;20222;-67
2021/12/13 12:46:17;;;;;;;140.10;42.00;;;1.50;99.90;;;;;;5081446;28;20214;-69
2021/12/13 12:49:14;;;;;;;139.33;41.70;;;1.50;99.90;;;;;;5096198;27;20307;-68
2021/12/13 12:52:09;;;;;;;155.37;44.70;;;1.40;99.90;;;;;;5099925;28;20222;-67
2021/12/13 12:54:58;;;;;;;159.43;43.60;;;1.30;99.90;;;;;;5088153;28;20229;-68
2021/12/13 12:57:47;;;;;;;154.90;43.67;;;1.40;99.90;;;;;;5084775;28;20294;-67
2021/12/13 13:00:36;;;;;;;149.83;42.80;;;1.40;99.90;;;;;;5095373;28;20211;-71
2021/12/13 13:03:33;;;;;;;158.87;44.43;;;1.40;99.90;;;;;;5088338;28;20210;-67
2021/12/13 13:06:25;;;;;;;151.40;44.23;;;1.30;99.90;;;;;;5080088;28;20217;-69
2021/12/13 13:09:14;;;;;;;139.73;41.90;;;1.40;99.90;;;;;;5093048;28;20251;-67
2021/12/13 13:12:03;;;;;;;144.23;42.53;;;1.40;99.90;;;;;;5093765;28;21994;-68
2021/12/13 13:14:54;;;;;;;161.43;44.73;;;1.30;99.90;;;;;;5090742;28;20555;-69
2021/12/13 13:17:45;;;;;;;152.63;44.90;;;1.40;99.90;;;;;;5081058;28;20215;-68
2021/12/13 13:20:39;;;;;;;157.90;46.23;;;1.50;99.90;;;;;;5078842;28;20663;-68
2021/12/13 13:23:38;;;;;;;153.53;44.30;;;1.50;99.90;;;;;;5092759;28;20237;-69
2021/12/13 13:26:29;;;;;;;146.90;43.03;;;1.50;99.90;;;;;;5094273;28;20219;-68
2021/12/13 13:29:20;;;;;;;159.00;43.90;;;1.50;99.90;;;;;;5094992;28;20246;-69
2021/12/13 13:32:12;;;;;;;152.73;43.03;;;1.60;99.90;;;;;;5079113;28;20279;-68
2021/12/13 13:35:01;;;;;;;163.83;45.37;;;1.50;99.90;;;;;;5095288;28;20211;-68
2021/12/13 13:37:51;;;;;;;153.23;44.70;;;1.50;99.90;;;;;;5093365;28;20230;-70
2021/12/13 13:40:40;;;;;;;149.43;43.57;;;1.40;99.90;;;;;;5080265;28;20229;-68
2021/12/13 13:43:31;;;;;;;157.33;47.40;;;1.30;99.90;;;;;;5041137;28;20230;-68
2021/12/13 13:46:21;;;;;;;158.80;45.67;;;1.30;99.90;;;;;;5094918;28;20311;-67
2021/12/13 13:49:14;;;;;;;170.23;47.37;;;1.30;99.90;;;;;;5091610;28;20238;-67
2021/12/13 13:52:12;;;;;;;159.40;46.27;;;1.40;99.90;;;;;;5076495;28;20492;-67
2021/12/13 13:55:20;;;;;;;160.03;45.87;;;1.50;99.90;;;;;;5077110;28;20230;-67
2021/12/13 13:58:17;;;;;;;165.20;45.70;;;1.60;99.90;;;;;;5095315;28;20222;-67
2021/12/13 14:01:14;;;;;;;171.73;46.23;;;1.60;99.90;;;;;;5080670;28;20253;-68
2021/12/13 14:04:06;;;;;;;164.40;46.23;;;1.60;99.90;;;;;;5092926;28;20346;-65
2021/12/13 14:06:58;;;;;;;165.23;47.47;;;1.60;99.90;;;;;;5095813;28;20272;-69
2021/12/13 14:09:48;;;;;;;159.87;47.30;;;1.60;99.90;;;;;;5095742;28;20916;-68
2021/12/13 14:12:42;;;;;;;171.37;48.77;;;1.50;99.90;;;;;;5078836;28;20314;-67
2021/12/13 14:15:34;;;;;;;181.77;53.37;;;1.50;99.90;;;;;;5095902;28;20258;-68
2021/12/13 14:18:27;;;;;;;174.27;50.40;;;1.40;99.90;;;;;;5093340;28;20317;-68
2021/12/13 14:21:18;;;;;;;163.77;46.17;;;1.40;99.90;;;;;;5081563;28;20219;-68
2021/12/13 14:24:09;;;;;;;161.67;46.00;;;1.40;99.90;;;;;;5095620;28;21061;-68
2021/12/13 14:27:16;;;;;;;162.20;47.00;;;1.50;99.90;;;;;;5097597;28;20241;-66
2021/12/13 14:30:15;;;;;;;167.57;49.00;;;1.50;99.90;;;;;;5084827;28;20235;-66
2021/12/13 14:33:22;;;;;;;169.93;48.33;;;1.50;99.90;;;;;;5102978;28;20237;-66
2021/12/13 14:36:19;;;;;;;173.13;46.87;;;1.60;99.90;;;;;;5098207;28;20222;-66
2021/12/13 14:39:12;;;;;;;181.43;48.93;;;1.60;99.90;;;;;;5082436;28;20241;-66
2021/12/13 14:42:05;;;;;;;176.67;48.53;;;1.50;99.90;;;;;;5077859;27;20288;-64
2021/12/13 14:44:57;;;;;;;186.90;48.90;;;1.50;99.90;;;;;;5083898;28;20318;-66
2021/12/13 14:47:56;;;;;;;186.17;49.40;;;1.60;99.90;;;;;;5093685;28;20364;-66
2021/12/13 14:50:50;;;;;;;170.73;47.03;;;1.50;99.90;;;;;;5098038;28;20862;-66
2021/12/13 14:53:40;;;;;;;173.53;47.00;;;1.50;99.90;;;;;;5097299;27;20218;-66
2021/12/13 14:56:29;;;;;;;180.17;48.60;;;1.50;99.90;;;;;;5097438;27;20231;-65